Time;durP1;ratioP1;P1;durP2;ratioP2;P2;SDS_P1;SDS_P2;PMS_P1;PMS_P2;Temp;Humidity;BMP_temperature;BMP_pressure;BME280_temperature;BME280_humidity;BME280_pressure;Samples;Min_cycle;Max_cycle;Signal;HPM_P1;HPM_P2
2023/05/10 00:02:09;;;;;;;11.73;10.52;;;;;;;12.83;100.00;100828.97;5090666;28;20103;-36
2023/05/10 00:04:35;;;;;;;12.40;11.20;;;;;;;12.79;100.00;100820.50;5090078;28;20021;-37
2023/05/10 00:07:01;;;;;;;;;;;;;;;12.94;100.00;100830.78;5090762;28;20035;-36
2023/05/10 00:09:26;;;;;;;12.50;11.30;;;;;;;12.83;100.00;100837.09;5089837;28;20241;-37
2023/05/10 00:11:52;;;;;;;14.25;12.82;;;;;;;12.77;100.00;100819.09;5082495;28;20099;-37
2023/05/10 00:14:18;;;;;;;13.95;12.65;;;;;;;12.84;100.00;100826.03;5076600;28;20468;-37
2023/05/10 00:16:43;;;;;;;12.35;11.15;;;;;;;12.82;100.00;100825.44;5076344;28;20166;-36
2023/05/10 00:19:08;;;;;;;14.07;12.68;;;;;;;12.79;100.00;100825.94;5076431;28;20032;-37
2023/05/10 00:21:34;;;;;;;14.43;12.25;;;;;;;12.83;100.00;100823.53;5075952;28;20353;-38
2023/05/10 00:24:00;;;;;;;14.25;12.90;;;;;;;12.80;100.00;100829.47;5076142;28;20099;-36
2023/05/10 00:26:25;;;;;;;14.10;12.70;;;;;;;12.77;100.00;100824.53;5076381;28;20368;-36
2023/05/10 00:28:51;;;;;;;15.57;13.43;;;;;;;12.78;100.00;100828.88;5075862;28;20019;-37
2023/05/10 00:31:16;;;;;;;14.75;13.15;;;;;;;12.78;100.00;100828.88;5076100;28;20153;-37
2023/05/10 00:33:41;;;;;;;15.25;13.65;;;;;;;12.80;100.00;100830.28;5058081;28;20025;-37
2023/05/10 00:36:07;;;;;;;14.68;13.27;;;;;;;12.79;100.00;100828.66;5076006;28;20024;-36
2023/05/10 00:38:33;;;;;;;15.18;13.57;;;;;;;12.75;100.00;100837.53;5075856;28;20066;-36
2023/05/10 00:40:59;;;;;;;15.02;13.48;;;;;;;12.71;100.00;100825.50;5076063;28;20028;-36
2023/05/10 00:43:24;;;;;;;16.55;14.05;;;;;;;12.74;100.00;100823.13;5075762;28;20495;-36
2023/05/10 00:45:50;;;;;;;15.97;14.17;;;;;;;12.71;100.00;100834.47;5076125;28;20096;-36
2023/05/10 00:48:15;;;;;;;15.20;13.52;;;;;;;12.70;100.00;100829.31;5075423;28;20267;-37
2023/05/10 00:50:41;;;;;;;15.95;14.23;;;;;;;12.68;100.00;100834.94;5075773;28;20024;-36
2023/05/10 00:53:07;;;;;;;15.77;14.07;;;;;;;12.66;100.00;100828.97;5075618;28;20364;-36
2023/05/10 00:55:32;;;;;;;;;;;;;;;12.73;100.00;100829.59;5076913;28;20081;-36
2023/05/10 00:57:58;;;;;;;15.13;13.52;;;;;;;12.62;100.00;100822.38;5075856;28;20264;-35
2023/05/10 01:00:23;;;;;;;17.08;15.00;;;;;;;12.56;100.00;100816.03;5075430;28;20055;-35
2023/05/10 01:02:49;;;;;;;15.57;14.02;;;;;;;12.60;100.00;100825.34;5075680;28;20039;-36
2023/05/10 01:05:14;;;;;;;17.30;15.40;;;;;;;12.54;100.00;100820.91;5075413;28;20388;-35
2023/05/10 01:07:40;;;;;;;17.35;15.50;;;;;;;12.56;100.00;100824.19;5075617;28;20076;-35
2023/05/10 01:10:07;;;;;;;17.30;15.50;;;;;;;12.48;100.00;100819.16;5075382;28;20024;-35
2023/05/10 01:12:36;;;;;;;18.60;16.60;;;;;;;12.52;100.00;100824.91;5075262;28;20174;-35
2023/05/10 01:15:03;;;;;;;18.63;16.73;;;;;;;12.40;100.00;100814.13;5075074;28;20027;-35
2023/05/10 01:17:29;;;;;;;17.90;15.88;;;;;;;12.42;100.00;100813.88;5075675;28;20032;-35
2023/05/10 01:19:54;;;;;;;19.38;16.50;;;;;;;12.39;100.00;100820.59;5075005;28;20383;-35
2023/05/10 01:23:04;;;;;;;20.70;17.13;;;;;;;12.48;100.00;100823.75;5075748;28;20036;-36
2023/05/10 01:25:44;;;;;;;18.40;16.10;;;;;;;12.42;100.00;100822.03;5075189;28;20086;-36
2023/05/10 01:28:31;;;;;;;19.20;17.17;;;;;;;12.41;100.00;100826.63;5075207;28;20020;-36
2023/05/10 01:31:34;;;;;;;19.58;17.58;;;;;;;12.44;100.00;100823.41;5074615;28;20028;-36
2023/05/10 01:34:09;;;;;;;20.45;17.75;;;;;;;12.43;100.00;100829.91;5074523;28;20456;-36
2023/05/10 01:36:48;;;;;;;17.58;15.80;;;;;;;12.42;100.00;100822.84;5074755;28;20495;-36
2023/05/10 01:39:38;;;;;;;19.33;17.38;;;;;;;12.38;100.00;100818.97;5074977;28;20017;-36
2023/05/10 01:42:07;;;;;;;19.55;17.52;;;;;;;12.36;100.00;100821.09;5074691;28;20036;-36
2023/05/10 01:44:46;;;;;;;21.13;17.67;;;;;;;12.40;100.00;100824.97;5074813;28;20459;-36
2023/05/10 01:47:20;;;;;;;15.82;14.23;;;;;;;12.45;100.00;100837.81;5074605;28;20391;-36
2023/05/10 01:49:51;;;;;;;19.60;17.58;;;;;;;12.49;100.00;100836.25;5074797;28;20468;-36
2023/05/10 01:52:22;;;;;;;29.05;21.70;;;;;;;12.38;100.00;100814.34;5074445;28;20460;-35
2023/05/10 01:55:02;;;;;;;26.92;22.80;;;;;;;12.50;100.00;100832.47;5075327;28;20393;-36
2023/05/10 01:57:33;;;;;;;28.10;22.58;;;;;;;12.52;100.00;100839.28;5074447;28;20368;-35
2023/05/10 02:00:00;;;;;;;29.67;23.35;;;;;;;12.49;100.00;100833.53;5074117;28;20406;-35
2023/05/10 02:02:28;;;;;;;30.55;24.02;;;;;;;12.50;100.00;100837.91;5074000;28;20040;-35
2023/05/10 02:04:56;;;;;;;29.63;23.30;;;;;;;12.52;100.00;100824.91;5075016;28;20455;-36
2023/05/10 02:07:23;;;;;;;30.15;23.88;;;;;;;12.56;100.00;100842.34;5075060;28;20020;-37
2023/05/10 02:09:49;;;;;;;31.83;25.23;;;;;;;12.46;100.00;100829.44;5073834;28;20056;-37
2023/05/10 02:12:15;;;;;;;31.02;24.92;;;;;;;12.57;100.00;100843.97;5074666;28;20125;-37
2023/05/10 02:14:42;;;;;;;29.27;23.83;;;;;;;12.57;100.00;100838.56;5073712;28;20107;-37
2023/05/10 02:17:09;;;;;;;33.30;25.38;;;;;;;12.58;100.00;100837.50;5074858;28;20047;-37
2023/05/10 02:19:38;;;;;;;33.03;26.65;;;;;;;12.56;100.00;100856.72;5074124;28;20028;-37
2023/05/10 02:22:04;;;;;;;34.30;27.98;;;;;;;12.60;100.00;100851.66;5074759;28;20411;-37
2023/05/10 02:24:31;;;;;;;;;;;;;;;12.68;100.00;100853.13;5074305;28;20020;-37
2023/05/10 02:26:58;;;;;;;31.40;26.25;;;;;;;12.61;100.00;100851.41;5074246;28;19905;-37
2023/05/10 02:29:26;;;;;;;36.50;28.67;;;;;;;12.59;100.00;100844.56;5074159;28;20029;-37
2023/05/10 02:31:53;;;;;;;36.55;31.20;;;;;;;12.58;100.00;100849.16;5074109;28;20021;-37
2023/05/10 02:34:21;;;;;;;38.90;30.15;;;;;;;12.55;100.00;100835.28;5073501;28;20104;-37
2023/05/10 02:36:47;;;;;;;34.08;28.23;;;;;;;12.58;100.00;100843.72;5073721;28;20021;-37
2023/05/10 02:39:14;;;;;;;;;;;;;;;12.69;100.00;100847.47;5074042;28;20066;-37
2023/05/10 02:41:45;;;;;;;36.92;29.52;;;;;;;12.56;100.00;100835.03;5074054;28;20370;-37
2023/05/10 02:44:11;;;;;;;34.97;28.88;;;;;;;12.64;100.00;100844.66;5074258;28;20077;-37
2023/05/10 02:46:37;;;;;;;;;;;;;;;12.69;100.00;100852.91;5074934;28;20047;-37
2023/05/10 02:49:03;;;;;;;33.58;26.98;;;;;;;12.62;100.00;100850.31;5074145;28;19915;-37
2023/05/10 02:51:33;;;;;;;31.23;26.92;;;;;;;12.56;100.00;100835.03;5073423;28;20389;-37
2023/05/10 02:54:06;;;;;;;35.28;29.20;;;;;;;12.62;100.00;100847.59;5073261;28;20031;-37
2023/05/10 02:56:40;;;;;;;33.13;28.15;;;;;;;12.56;100.00;100840.44;5073556;28;20365;-37
2023/05/10 02:59:05;;;;;;;32.53;28.33;;;;;;;12.62;100.00;100844.91;5074033;28;20016;-37
2023/05/10 03:01:31;;;;;;;37.00;31.02;;;;;;;12.54;100.00;100841.75;5073850;28;20465;-40
2023/05/10 03:03:57;;;;;;;37.88;30.63;;;;;;;12.63;100.00;100849.25;5073491;28;20100;-37
2023/05/10 03:06:22;;;;;;;38.60;32.42;;;;;;;12.60;100.00;100847.03;5074049;28;20103;-37
2023/05/10 03:08:48;;;;;;;38.65;33.30;;;;;;;12.61;100.00;100856.81;5073171;28;20028;-37
2023/05/10 03:11:35;;;;;;;41.30;33.47;;;;;;;12.54;100.00;100842.59;5073426;28;20357;-37
2023/05/10 03:14:03;;;;;;;;;;;;;;;12.69;100.00;100852.06;5074182;28;20069;-37
2023/05/10 03:16:41;;;;;;;43.75;36.42;;;;;;;12.58;100.00;100845.63;5073076;28;19908;-37
2023/05/10 03:19:22;;;;;;;43.42;36.13;;;;;;;12.60;100.00;100857.06;5073604;28;20025;-37
2023/05/10 03:21:51;;;;;;;44.50;36.67;;;;;;;12.60;100.00;100857.06;5073535;28;20020;-39
2023/05/10 03:24:18;;;;;;;42.50;34.85;;;;;;;12.59;100.00;100855.41;5073445;28;20445;-37
2023/05/10 03:26:45;;;;;;;44.88;36.30;;;;;;;12.60;100.00;100857.06;5073029;28;20072;-37
2023/05/10 03:29:13;;;;;;;43.20;35.67;;;;;;;12.59;100.00;100856.25;5073181;28;20361;-37
2023/05/10 03:31:39;;;;;;;43.80;36.28;;;;;;;12.59;100.00;100861.69;5073147;28;20107;-37
2023/05/10 03:34:06;;;;;;;42.20;36.25;;;;;;;12.60;100.00;100866.03;5074002;28;20094;-37
2023/05/10 03:36:31;;;;;;;42.17;35.90;;;;;;;12.61;100.00;100864.97;5073166;28;20479;-37
2023/05/10 03:38:56;;;;;;;43.85;35.85;;;;;;;12.60;100.00;100866.03;5073111;28;20028;-37
2023/05/10 03:41:22;;;;;;;;;;;;;;;12.68;100.00;100872.94;5073776;28;20020;-37
2023/05/10 03:43:47;;;;;;;43.60;34.17;;;;;;;12.63;100.00;100864.69;5073128;28;20272;-37
2023/05/10 03:46:12;;;;;;;40.57;33.33;;;;;;;12.61;100.00;100873.09;5073913;28;20028;-37
2023/05/10 03:48:38;;;;;;;40.20;33.07;;;;;;;12.61;100.00;100872.28;5076751;28;20270;-37
2023/05/10 03:51:03;;;;;;;38.13;31.98;;;;;;;12.61;100.00;100875.81;5076584;28;20082;-37
2023/05/10 03:53:28;;;;;;;36.30;30.33;;;;;;;12.58;100.00;100870.84;5076705;28;20028;-37
2023/05/10 03:55:54;;;;;;;34.00;28.60;;;;;;;12.61;100.00;100881.25;5077295;28;20025;-37
2023/05/10 03:58:19;;;;;;;31.55;27.73;;;;;;;12.60;100.00;100881.50;5076978;28;20091;-37
2023/05/10 04:00:45;;;;;;;29.85;26.10;;;;;;;12.59;100.00;100883.38;5076432;28;20135;-37
2023/05/10 04:03:14;;;;;;;29.23;25.60;;;;;;;12.56;100.00;100885.75;5077004;28;20079;-37
2023/05/10 04:05:40;;;;;;;31.30;25.55;;;;;;;12.56;100.00;100889.28;5076722;28;20027;-37
2023/05/10 04:08:05;;;;;;;29.05;24.27;;;;;;;12.48;100.00;100875.28;5076637;28;20018;-37
2023/05/10 04:10:31;;;;;;;29.95;24.42;;;;;;;12.51;100.00;100886.47;5076672;28;20373;-37
2023/05/10 04:12:57;;;;;;;28.23;23.17;;;;;;;12.52;100.00;100884.59;5076353;28;20020;-37
2023/05/10 04:15:22;;;;;;;32.75;25.27;;;;;;;12.53;100.00;100902.50;5077202;28;20020;-37
2023/05/10 04:17:47;;;;;;;29.15;23.25;;;;;;;12.55;100.00;100892.25;5076327;28;20500;-37
2023/05/10 04:20:13;;;;;;;30.13;23.80;;;;;;;12.44;100.00;100879.53;5075912;28;20024;-37
2023/05/10 04:22:39;;;;;;;30.55;23.00;;;;;;;12.53;100.00;100902.50;5076216;28;20021;-37
2023/05/10 04:25:05;;;;;;;29.15;23.25;;;;;;;12.40;100.00;100872.97;5076751;28;20031;-37
2023/05/10 04:27:30;;;;;;;29.65;22.48;;;;;;;12.44;100.00;100879.53;5076014;28;20021;-37
2023/05/10 04:29:56;;;;;;;28.00;22.88;;;;;;;12.51;100.00;100897.31;5076386;28;20423;-37
2023/05/10 04:32:22;;;;;;;31.30;24.20;;;;;;;12.51;100.00;100902.75;5076042;28;20025;-37
2023/05/10 04:34:47;;;;;;;33.00;26.00;;;;;;;12.48;100.00;100897.81;5076374;28;20338;-37
2023/05/10 04:37:13;;;;;;;34.03;24.52;;;;;;;12.42;100.00;100896.06;5075710;28;20267;-37
2023/05/10 04:39:38;;;;;;;28.20;22.73;;;;;;;12.38;100.00;100898.44;5076135;28;20020;-37
2023/05/10 04:42:07;;;;;;;30.10;23.60;;;;;;;12.34;100.00;100896.44;5076455;28;20028;-37
2023/05/10 04:44:32;;;;;;;28.17;22.48;;;;;;;12.36;100.00;100902.47;5075824;28;20360;-37
2023/05/10 04:46:58;;;;;;;33.45;22.52;;;;;;;12.32;100.00;100907.53;5075867;28;20031;-37
2023/05/10 04:49:24;;;;;;;25.42;20.88;;;;;;;12.27;100.00;100906.63;5075434;28;20036;-37
2023/05/10 04:51:49;;;;;;;27.43;21.20;;;;;;;12.24;100.00;100910.59;5076042;28;20021;-37
2023/05/10 04:54:14;;;;;;;26.93;21.03;;;;;;;12.24;100.00;100909.78;5076453;28;20328;-37
2023/05/10 04:56:40;;;;;;;23.00;20.35;;;;;;;12.21;100.00;100913.00;5075628;28;20052;-37
2023/05/10 04:59:06;;;;;;;24.08;19.75;;;;;;;12.20;100.00;100914.91;5075383;28;20029;-37
2023/05/10 05:01:31;;;;;;;23.88;18.98;;;;;;;12.19;100.00;100915.09;5075883;28;20045;-37
2023/05/10 05:03:56;;;;;;;22.38;18.88;;;;;;;12.22;100.00;100917.34;5075692;28;20020;-37
2023/05/10 05:06:22;;;;;;;23.52;19.05;;;;;;;12.25;100.00;100922.28;5075919;28;20411;-37
2023/05/10 05:08:49;;;;;;;21.10;18.00;;;;;;;12.21;100.00;100919.25;5075303;28;20040;-37
2023/05/10 05:11:14;;;;;;;19.95;17.88;;;;;;;12.23;100.00;100910.84;5075555;28;20337;-37
2023/05/10 05:13:40;;;;;;;20.75;17.60;;;;;;;12.18;100.00;100911.56;5075563;28;20533;-37
2023/05/10 05:16:05;;;;;;;22.02;18.90;;;;;;;12.27;100.00;100922.88;5075409;28;20078;-37
2023/05/10 05:18:30;;;;;;;21.30;18.02;;;;;;;12.27;100.00;100923.69;5075654;28;20021;-37
2023/05/10 05:20:56;;;;;;;19.75;17.63;;;;;;;12.22;100.00;100914.66;5075125;28;20107;-37
2023/05/10 05:23:24;;;;;;;21.93;19.57;;;;;;;12.28;100.00;100927.22;5075307;28;20027;-37
2023/05/10 05:25:51;;;;;;;23.10;20.42;;;;;;;12.31;100.00;100926.75;5075861;28;20328;-37
2023/05/10 05:28:16;;;;;;;22.55;18.85;;;;;;;12.32;100.00;100925.69;5074647;28;20406;-37
2023/05/10 05:30:42;;;;;;;22.85;19.42;;;;;;;12.29;100.00;100931.59;5075230;28;20100;-37
2023/05/10 05:33:07;;;;;;;20.57;18.30;;;;;;;12.38;100.00;100930.16;5075634;28;20345;-37
2023/05/10 05:35:33;;;;;;;22.05;19.42;;;;;;;12.29;100.00;100916.13;5075454;28;20330;-37
2023/05/10 05:37:58;;;;;;;21.00;18.80;;;;;;;12.39;100.00;100934.50;5075021;28;20020;-37
2023/05/10 05:40:24;;;;;;;24.42;18.98;;;;;;;12.45;100.00;100935.44;5075508;28;20421;-37
2023/05/10 05:42:49;;;;;;;23.17;19.70;;;;;;;12.49;100.00;100932.03;5075205;28;20353;-37
2023/05/10 05:45:15;;;;;;;20.83;18.58;;;;;;;12.47;100.00;100941.44;5074611;28;20096;-37
2023/05/10 05:47:40;;;;;;;23.73;19.17;;;;;;;12.49;100.00;100929.31;5074532;28;20025;-37
2023/05/10 05:50:06;;;;;;;22.38;19.02;;;;;;;12.53;100.00;100938.59;5075116;28;20403;-37
2023/05/10 05:52:31;;;;;;;22.02;19.10;;;;;;;12.54;100.00;100939.41;5074518;28;20020;-37
2023/05/10 05:54:57;;;;;;;23.30;19.42;;;;;;;12.47;100.00;100930.59;5074720;28;20020;-37
2023/05/10 05:57:22;;;;;;;23.38;18.60;;;;;;;12.60;100.00;100939.28;5074205;28;20368;-37
2023/05/10 05:59:48;;;;;;;21.73;19.23;;;;;;;12.67;100.00;100944.53;5074127;28;20356;-37
2023/05/10 06:02:13;;;;;;;21.92;19.60;;;;;;;12.67;100.00;100939.13;5074897;28;20035;-37
2023/05/10 06:04:39;;;;;;;23.70;19.52;;;;;;;12.70;100.00;100940.53;5074314;28;20455;-37
2023/05/10 06:07:04;;;;;;;23.00;20.60;;;;;;;12.73;100.00;100948.19;5074486;28;20035;-37
2023/05/10 06:09:29;;;;;;;20.90;18.67;;;;;;;12.77;100.00;100946.63;5073911;28;20052;-37
2023/05/10 06:11:55;;;;;;;24.40;19.30;;;;;;;12.70;100.00;100938.66;5074400;28;20618;-37
2023/05/10 06:14:21;;;;;;;22.42;18.35;;;;;;;12.78;100.00;100956.41;5074873;28;20270;-37
2023/05/10 06:16:46;;;;;;;24.02;18.90;;;;;;;12.71;100.00;100962.00;5074712;28;20364;-37
2023/05/10 06:19:11;;;;;;;21.23;18.95;;;;;;;12.67;100.00;100949.97;5074252;28;20021;-37
2023/05/10 06:21:37;;;;;;;20.25;18.08;;;;;;;12.70;100.00;100959.53;5074284;28;20459;-37
2023/05/10 06:24:03;;;;;;;21.35;18.95;;;;;;;12.73;100.00;100967.16;5073934;28;20104;-37
2023/05/10 06:26:28;;;;;;;20.17;18.08;;;;;;;12.69;100.00;100956.00;5073951;28;20407;-37
2023/05/10 06:28:53;;;;;;;21.92;19.63;;;;;;;12.74;100.00;100971.56;5073876;28;20054;-37
2023/05/10 06:31:19;;;;;;;21.20;18.93;;;;;;;12.79;100.00;100966.22;5074117;28;20448;-37
2023/05/10 06:33:44;;;;;;;22.08;19.02;;;;;;;12.85;100.00;100963.34;5073474;28;20255;-37
2023/05/10 06:36:10;;;;;;;26.33;19.27;;;;;;;12.84;100.00;100971.75;5074358;28;20032;-37
2023/05/10 06:38:35;;;;;;;21.00;18.65;;;;;;;12.80;100.00;100962.44;5074009;28;20375;-37
2023/05/10 06:41:01;;;;;;;22.00;19.17;;;;;;;12.81;100.00;100964.91;5073963;28;20435;-37
2023/05/10 06:43:28;;;;;;;22.50;19.38;;;;;;;12.90;100.00;100970.75;5073963;28;20030;-37
2023/05/10 06:45:53;;;;;;;23.85;20.58;;;;;;;12.86;100.00;100969.59;5073959;28;20106;-37
2023/05/10 06:48:19;;;;;;;23.98;19.25;;;;;;;12.93;100.00;100964.00;5074159;28;20071;-37
2023/05/10 06:50:44;;;;;;;21.95;19.00;;;;;;;13.02;100.00;100971.50;5073693;28;20032;-37
2023/05/10 06:53:09;;;;;;;20.67;18.52;;;;;;;13.17;100.00;100981.00;5073286;28;20419;-37
2023/05/10 06:55:35;;;;;;;20.77;18.35;;;;;;;13.23;100.00;100990.94;5073639;28;20056;-37
2023/05/10 06:58:01;;;;;;;20.35;18.15;;;;;;;13.27;100.00;100978.50;5073517;28;20021;-37
2023/05/10 07:00:27;;;;;;;;;;;;;;;13.37;100.00;100981.38;5074436;28;20348;-37
2023/05/10 07:02:52;;;;;;;21.80;18.42;;;;;;;13.28;100.00;101000.00;5073740;28;20019;-37
2023/05/10 07:05:18;;;;;;;22.70;19.80;;;;;;;13.21;100.00;100982.97;5073551;28;20060;-37
2023/05/10 07:07:43;;;;;;;21.98;19.55;;;;;;;13.16;100.00;100991.03;5073232;28;20267;-37
2023/05/10 07:10:09;;;;;;;21.92;19.63;;;;;;;13.12;100.00;100998.84;5073176;28;20461;-37
2023/05/10 07:12:34;;;;;;;23.13;20.73;;;;;;;13.03;100.00;101002.19;5073087;28;20025;-37
2023/05/10 07:15:00;;;;;;;22.52;19.30;;;;;;;13.03;100.00;101004.91;5074218;28;20021;-37
2023/05/10 07:17:25;;;;;;;25.48;20.95;;;;;;;12.99;100.00;101010.03;5073647;28;20028;-37
2023/05/10 07:19:50;;;;;;;22.02;19.88;;;;;;;12.94;100.00;101012.66;5073643;28;20021;-37
2023/05/10 07:22:16;;;;;;;23.73;20.60;;;;;;;12.95;100.00;101017.00;5076251;28;20070;-37
2023/05/10 07:24:42;;;;;;;;;;;;;;;13.01;100.00;101021.44;5078099;28;20035;-37
2023/05/10 07:27:07;;;;;;;26.02;21.52;;;;;;;12.91;100.00;101025.88;5077354;28;20306;-37
2023/05/10 07:29:32;;;;;;;22.60;19.80;;;;;;;12.88;100.00;101021.72;5077583;28;20017;-37
2023/05/10 07:31:58;;;;;;;24.60;20.30;;;;;;;12.84;100.00;101024.13;5077741;28;20261;-37
2023/05/10 07:34:23;;;;;;;23.50;20.20;;;;;;;12.86;100.00;101029.31;5077196;28;20115;-37
2023/05/10 07:36:48;;;;;;;25.35;18.65;;;;;;;12.87;100.00;101030.94;5077192;28;20334;-35
2023/05/10 07:39:14;;;;;;;22.98;19.33;;;;;;;12.83;100.00;101025.19;5077096;28;20028;-35
2023/05/10 07:41:39;;;;;;;22.27;18.67;;;;;;;12.84;100.00;101017.88;5077513;28;20030;-35
2023/05/10 07:44:06;;;;;;;23.73;20.08;;;;;;;12.89;100.00;101026.94;5077702;28;20506;-36
2023/05/10 07:46:31;;;;;;;24.10;18.75;;;;;;;12.92;100.00;101025.63;5077210;28;20055;-35
2023/05/10 07:48:56;;;;;;;19.70;17.67;;;;;;;12.95;100.00;101037.91;5076801;28;20025;-35
2023/05/10 07:51:22;;;;;;;21.90;18.50;;;;;;;12.96;100.00;101029.50;5076556;28;20086;-35
2023/05/10 07:53:47;;;;;;;20.85;18.65;;;;;;;12.99;100.00;101031.75;5076770;28;20263;-35
2023/05/10 07:56:29;;;;;;;18.10;16.17;;;;;;;13.01;100.00;101037.75;5076947;28;20024;-35
2023/05/10 07:58:58;;;;;;;19.17;16.10;;;;;;;13.01;100.00;101042.34;5076660;28;20062;-35
2023/05/10 08:01:23;;;;;;;15.65;13.95;;;;;;;13.00;100.00;101040.72;5077175;28;20419;-35
2023/05/10 08:03:50;;;;;;;17.23;15.35;;;;;;;13.02;100.00;101044.81;5077094;28;20036;-35
2023/05/10 08:06:17;;;;;;;17.30;14.32;;;;;;;13.02;100.00;101052.97;5076235;28;20039;-35
2023/05/10 08:08:42;;;;;;;15.25;13.65;;;;;;;13.01;100.00;101053.22;5077005;28;20025;-35
2023/05/10 08:11:08;;;;;;;16.20;13.80;;;;;;;13.01;100.00;101061.34;5076139;28;20063;-35
2023/05/10 08:13:33;;;;;;;14.73;12.95;;;;;;;13.04;100.00;101064.41;5076098;28;20115;-35
2023/05/10 08:15:59;;;;;;;16.70;12.93;;;;;;;13.00;100.00;101060.53;5076411;28;20437;-36
2023/05/10 08:18:24;;;;;;;15.73;14.00;;;;;;;13.03;100.00;101065.47;5076346;28;20066;-35
2023/05/10 08:20:49;;;;;;;18.17;14.67;;;;;;;13.05;100.00;101071.47;5076169;28;20028;-35
2023/05/10 08:23:15;;;;;;;14.97;13.40;;;;;;;13.10;100.00;101068.88;5076178;28;20263;-36
2023/05/10 08:25:41;;;;;;;14.85;13.25;;;;;;;13.14;100.00;101075.47;5076390;28;20330;-36
2023/05/10 08:28:06;;;;;;;15.18;12.35;;;;;;;13.15;100.00;101068.97;5076276;28;20475;-36
2023/05/10 08:30:31;;;;;;;13.80;11.57;;;;;;;13.05;100.00;101066.06;5076010;28;20079;-36
2023/05/10 08:32:57;;;;;;;12.32;11.13;;;;;;;13.28;100.00;101078.75;5076019;28;20021;-36
2023/05/10 08:35:22;;;;;;;;;;;;;;;13.40;100.00;101082.22;5076389;28;20095;-36
2023/05/10 08:37:47;;;;;;;11.32;9.88;;;;;;;13.44;100.00;101081.75;5075868;28;19965;-36
2023/05/10 08:40:14;;;;;;;12.20;11.00;;;;;;;13.55;100.00;101081.66;5075890;28;20035;-36
2023/05/10 08:42:43;;;;;;;11.10;9.88;;;;;;;13.65;100.00;101078.31;5075754;28;20031;-36
2023/05/10 08:45:10;;;;;;;11.85;9.82;;;;;;;13.68;100.00;101082.44;5075613;28;20028;-36
2023/05/10 08:47:37;;;;;;;11.73;10.07;;;;;;;13.68;100.00;101085.16;5076267;28;20020;-36
2023/05/10 08:50:03;;;;;;;14.65;10.20;;;;;;;13.75;100.00;101081.19;5076549;28;20070;-36
2023/05/10 08:52:30;;;;;;;11.93;9.88;;;;;;;13.82;100.00;101086.50;5075378;28;20476;-36
2023/05/10 08:54:55;;;;;;;12.93;10.10;;;;;;;13.81;100.00;101090.25;5075655;28;20021;-36
2023/05/10 08:57:21;;;;;;;9.98;8.10;;;;;;;13.82;100.00;101094.63;5076445;28;20028;-36
2023/05/10 08:59:47;;;;;;;11.00;8.60;;;;;;;13.79;100.00;101092.41;5075473;28;20025;-36
2023/05/10 09:02:12;;;;;;;;;;;;;;;13.91;100.00;101095.88;5076945;28;20346;-36
2023/05/10 09:04:38;;;;;;;8.88;7.50;;;;;;;13.71;100.00;101079.22;5075736;28;19914;-36
2023/05/10 09:07:04;;;;;;;9.70;8.15;;;;;;;13.76;100.00;101092.88;5076255;28;20024;-36
2023/05/10 09:09:29;;;;;;;9.32;7.95;;;;;;;13.84;100.00;101104.19;5075972;28;20028;-36
2023/05/10 09:11:55;;;;;;;;;;;;;;;13.94;100.00;101102.72;5076307;28;20104;-36
2023/05/10 09:14:21;;;;;;;9.30;7.38;;;;;;;13.85;100.00;101113.16;5075327;28;19912;-36
2023/05/10 09:16:47;;;;;;;8.32;7.43;;;;;;;13.80;100.00;101113.06;5075258;28;20024;-36
2023/05/10 09:19:13;;;;;;;8.95;7.93;;;;;;;13.79;100.00;101103.28;5075667;28;20020;-36
2023/05/10 09:21:38;;;;;;;;;;;;;;;13.91;100.00;101109.47;5076061;28;20452;-36
2023/05/10 09:24:05;;;;;;;8.93;7.97;;;;;;;13.77;100.00;101121.75;5075023;28;19914;-36
2023/05/10 09:26:31;;;;;;;7.93;7.13;;;;;;;13.72;100.00;101114.31;5075315;28;20126;-36
2023/05/10 09:28:58;;;;;;;7.63;6.82;;;;;;;13.75;100.00;101121.13;5075311;28;20456;-36
2023/05/10 09:31:27;;;;;;;7.68;6.88;;;;;;;13.68;100.00;101115.88;5074980;28;20034;-36
2023/05/10 09:33:53;;;;;;;8.73;6.82;;;;;;;13.71;100.00;101125.41;5074564;28;20028;-36
2023/05/10 09:36:19;;;;;;;8.63;7.38;;;;;;;13.66;100.00;101118.00;5074811;28;20020;-36
2023/05/10 09:38:49;;;;;;;8.30;6.85;;;;;;;13.65;100.00;101117.16;5075330;28;20032;-36
2023/05/10 09:41:18;;;;;;;8.13;6.93;;;;;;;13.62;100.00;101119.56;5074646;28;20029;-36
2023/05/10 09:43:43;;;;;;;8.23;6.53;;;;;;;13.68;100.00;101121.31;5073831;28;20020;-36
2023/05/10 09:46:10;;;;;;;7.75;6.90;;;;;;;13.66;100.00;101126.16;5075062;28;20314;-36
2023/05/10 09:48:42;;;;;;;7.55;6.13;;;;;;;13.67;100.00;101130.53;5074558;28;20032;-36
2023/05/10 09:51:07;;;;;;;8.60;6.45;;;;;;;13.72;100.00;101127.91;5075095;28;20029;-36
2023/05/10 09:53:33;;;;;;;8.27;5.83;;;;;;;13.77;100.00;101127.19;5074451;28;20036;-36
2023/05/10 09:55:58;;;;;;;7.03;5.43;;;;;;;13.80;100.00;101126.66;5074244;28;20243;-37
2023/05/10 09:58:23;;;;;;;6.22;5.18;;;;;;;13.85;100.00;101124.84;5074417;28;20020;-36
2023/05/10 10:00:51;;;;;;;6.53;5.32;;;;;;;13.95;100.00;101129.63;5075034;28;20127;-36
2023/05/10 10:03:22;;;;;;;6.63;5.55;;;;;;;13.98;100.00;101131.06;5074227;28;20051;-36
2023/05/10 10:05:48;;;;;;;7.95;5.43;;;;;;;14.03;100.00;101140.13;5075060;28;20020;-36
2023/05/10 10:08:15;;;;;;;6.03;5.22;;;;;;;14.08;100.00;101118.44;5073935;28;20025;-36
2023/05/10 10:10:41;;;;;;;5.38;4.50;;;;;;;14.29;100.00;101129.63;5074679;28;20075;-36
2023/05/10 10:13:07;;;;;;;6.95;5.57;;;;;;;14.43;100.00;101120.88;5073888;28;20044;-36
2023/05/10 10:15:34;;;;;;;6.00;5.00;;;;;;;14.61;100.00;101108.94;5074421;28;20466;-36
2023/05/10 10:18:00;;;;;;;6.10;5.18;;;;;;;14.78;100.00;101127.09;5074571;28;20020;-36
2023/05/10 10:20:26;;;;;;;6.95;5.22;;;;;;;14.75;100.00;101122.19;5073725;28;20475;-36
2023/05/10 10:22:52;;;;;;;6.25;4.85;;;;;;;14.77;100.00;101120.84;5073959;28;20419;-36
2023/05/10 10:25:19;;;;;;;6.30;4.78;;;;;;;14.72;100.00;101130.84;5074782;28;20062;-36
2023/05/10 10:27:53;;;;;;;7.90;6.07;;;;;;;14.64;100.00;101127.50;5073864;28;20032;-37
2023/05/10 10:30:45;;;;;;;7.15;6.07;;;;;;;14.52;100.00;101125.94;5073854;28;20024;-37
2023/05/10 10:33:39;;;;;;;9.70;7.55;;;;;;;14.47;100.00;101140.25;5073781;28;20374;-37
2023/05/10 10:36:05;;;;;;;9.55;8.05;;;;;;;14.36;100.00;101141.19;5074635;28;20137;-37
2023/05/10 10:38:46;;;;;;;9.77;8.63;;;;;;;14.36;100.00;101144.72;5073731;28;20369;-37
2023/05/10 10:41:28;;;;;;;10.43;8.68;;;;;;;14.29;100.00;101145.97;5073688;28;20481;-37
2023/05/10 10:44:25;;;;;;;11.45;8.93;;;;;;;14.36;100.00;101138.47;5073430;28;20457;-37
2023/05/10 10:47:22;;;;;;;9.98;8.98;;;;;;;14.39;100.00;101135.22;5073638;28;20016;-37
2023/05/10 10:50:01;;;;;;;10.50;8.93;;;;;;;14.37;100.00;101132.78;5074424;28;20099;-37
2023/05/10 10:52:32;;;;;;;10.95;9.73;;;;;;;14.50;100.00;101145.25;5074373;28;20032;-37
2023/05/10 10:55:12;;;;;;;12.07;9.23;;;;;;;14.48;100.00;101130.22;5073093;28;20027;-37
2023/05/10 10:57:41;;;;;;;10.27;9.20;;;;;;;14.56;100.00;101144.25;5073999;28;20012;-37
2023/05/10 11:00:24;;;;;;;10.55;9.07;;;;;;;14.61;100.00;101136.16;5073337;28;20064;-37
2023/05/10 11:02:53;;;;;;;9.82;8.82;;;;;;;14.60;100.00;101139.13;5072426;28;20396;-37
2023/05/10 11:05:27;;;;;;;9.43;8.43;;;;;;;14.72;100.00;101149.91;5073097;28;20498;-37
2023/05/10 11:07:57;;;;;;;10.70;9.35;;;;;;;14.77;100.00;101136.34;5073867;28;20036;-37
2023/05/10 11:10:24;;;;;;;10.35;8.52;;;;;;;14.79;100.00;101129.59;5073166;28;20484;-37